Hovedside
METAR-TAF:

METAR-TAF

Lufthavner :

Rabat, Marokko

breddegrad: 34-03N, lengdegrad: 006-46W, høyde over havet: 84 m

Gjeldene værobservasjon

Denne rapporten ble laget for 29 minutter siden, klokken 03:30 UTC
Vind 1 kt fra Sør
Temperatur 18°C
Luftfuktighet 88%
Trykk 1017 hPa
Sikt: 2600 m
dis

METAR: GMME 200330Z 18001KT 2600 R21/1300VP2000U BR NSC 18/16 Q1017 TEMPO 1600 BR

Tid: 04:59 (03:59 UTC)

Varsel

Denne rapporten ble laget for 4 timer og 59 minutter siden, klokken 23:00 UTC
Varsel gyldig fra 20. klokken 00 UTC til 21. klokken 06 UTC
Vind 10 kt fra Nordvest
Sikt: 8000 m
Midlertidig
fra 20. klokken 00 UTC til 20. klokken 09 UTC
Vind 2 kt fra skiftende retning
Sikt: 3000 m
Spredte skyer i en høyde av 1000 ft
Spredte skyer i en høyde av 1500 ft
dis

TAF: GMME 192300Z 2000/2106 32010KT 8000 NSC TEMPO 2000/2009 VRB02KT 3000 BR SCT010 SCT015

Værobservasjoner og værvarsel for over 4000 flyplasser (METAR- og TAF-rapporter).

Tilgjengelige stasjoner er representert av de røde og gule prikkene på kartet.

Hold musepekeren over prikken for å se navnet på stasjonen.

Klikk så for å se værobservasjoner og -varsler.

For å forandre kartet kan du klikke på den grønne knappen med svart kryss for å zoome inn, på den grønne knappen med strek for å zoome ut, eller på de grønne pilene for å se tilstøtende kart.


METAR-TAF: